sensor_id;sensor_type;location;lat;lon;timestamp;P1;durP1;ratioP1;P2;durP2;ratioP2
60714;SDS011;46564;53.096;8.246;2022-07-23T00:02:38;8.73;;;2.38;;
60714;SDS011;46564;53.096;8.246;2022-07-23T00:07:40;7.78;;;2.58;;
60714;SDS011;46564;53.096;8.246;2022-07-23T00:12:42;3.72;;;2.20;;
60714;SDS011;46564;53.096;8.246;2022-07-23T00:17:52;8.38;;;2.38;;
60714;SDS011;46564;53.096;8.246;2022-07-23T00:22:54;5.32;;;2.70;;
60714;SDS011;46564;53.096;8.246;2022-07-23T00:27:57;8.75;;;2.60;;
60714;SDS011;46564;53.096;8.246;2022-07-23T00:33:00;6.63;;;2.30;;
60714;SDS011;46564;53.096;8.246;2022-07-23T00:38:04;10.10;;;2.50;;
60714;SDS011;46564;53.096;8.246;2022-07-23T00:43:06;8.40;;;2.28;;
60714;SDS011;46564;53.096;8.246;2022-07-23T00:48:08;9.57;;;2.63;;
60714;SDS011;46564;53.096;8.246;2022-07-23T00:53:10;5.88;;;2.63;;
60714;SDS011;46564;53.096;8.246;2022-07-23T00:58:12;7.47;;;2.70;;
60714;SDS011;46564;53.096;8.246;2022-07-23T01:03:14;14.10;;;2.70;;
60714;SDS011;46564;53.096;8.246;2022-07-23T01:08:16;7.35;;;3.47;;
60714;SDS011;46564;53.096;8.246;2022-07-23T01:13:17;5.82;;;2.65;;
60714;SDS011;46564;53.096;8.246;2022-07-23T01:18:19;10.35;;;3.35;;
60714;SDS011;46564;53.096;8.246;2022-07-23T01:23:21;7.68;;;3.20;;
60714;SDS011;46564;53.096;8.246;2022-07-23T01:28:28;13.27;;;3.95;;
60714;SDS011;46564;53.096;8.246;2022-07-23T01:33:32;6.95;;;3.25;;
60714;SDS011;46564;53.096;8.246;2022-07-23T01:38:34;9.93;;;3.20;;
60714;SDS011;46564;53.096;8.246;2022-07-23T01:43:36;6.03;;;3.10;;
60714;SDS011;46564;53.096;8.246;2022-07-23T01:48:38;7.93;;;3.28;;
60714;SDS011;46564;53.096;8.246;2022-07-23T01:53:59;11.50;;;3.60;;
60714;SDS011;46564;53.096;8.246;2022-07-23T01:59:00;9.00;;;3.72;;
60714;SDS011;46564;53.096;8.246;2022-07-23T02:04:03;8.82;;;3.63;;
60714;SDS011;46564;53.096;8.246;2022-07-23T02:09:05;6.70;;;3.50;;
60714;SDS011;46564;53.096;8.246;2022-07-23T02:14:07;8.45;;;3.78;;
60714;SDS011;46564;53.096;8.246;2022-07-23T02:19:09;9.18;;;3.53;;
60714;SDS011;46564;53.096;8.246;2022-07-23T02:24:10;11.48;;;3.90;;
60714;SDS011;46564;53.096;8.246;2022-07-23T02:29:14;9.48;;;4.40;;
60714;SDS011;46564;53.096;8.246;2022-07-23T02:34:16;11.95;;;3.70;;
60714;SDS011;46564;53.096;8.246;2022-07-23T02:39:17;8.02;;;3.90;;
60714;SDS011;46564;53.096;8.246;2022-07-23T02:44:19;7.82;;;4.32;;
60714;SDS011;46564;53.096;8.246;2022-07-23T02:49:24;7.18;;;4.07;;
60714;SDS011;46564;53.096;8.246;2022-07-23T02:54:26;10.85;;;4.40;;
60714;SDS011;46564;53.096;8.246;2022-07-23T02:59:27;6.57;;;3.92;;
60714;SDS011;46564;53.096;8.246;2022-07-23T03:04:29;8.80;;;3.95;;
60714;SDS011;46564;53.096;8.246;2022-07-23T03:09:31;7.15;;;3.95;;
60714;SDS011;46564;53.096;8.246;2022-07-23T03:14:33;7.28;;;3.85;;
60714;SDS011;46564;53.096;8.246;2022-07-23T03:19:34;7.90;;;4.07;;
60714;SDS011;46564;53.096;8.246;2022-07-23T03:29:59;8.38;;;4.75;;
60714;SDS011;46564;53.096;8.246;2022-07-23T03:35:01;10.50;;;4.72;;
60714;SDS011;46564;53.096;8.246;2022-07-23T03:40:07;10.30;;;5.28;;
60714;SDS011;46564;53.096;8.246;2022-07-23T03:45:10;9.30;;;5.05;;
60714;SDS011;46564;53.096;8.246;2022-07-23T03:50:11;11.52;;;4.90;;
60714;SDS011;46564;53.096;8.246;2022-07-23T03:55:13;9.60;;;4.80;;
60714;SDS011;46564;53.096;8.246;2022-07-23T04:00:15;10.85;;;5.53;;
60714;SDS011;46564;53.096;8.246;2022-07-23T04:05:18;10.85;;;5.15;;
60714;SDS011;46564;53.096;8.246;2022-07-23T04:10:24;8.35;;;4.40;;
60714;SDS011;46564;53.096;8.246;2022-07-23T04:15:26;8.73;;;5.20;;
60714;SDS011;46564;53.096;8.246;2022-07-23T04:20:28;11.35;;;4.93;;
60714;SDS011;46564;53.096;8.246;2022-07-23T04:25:33;9.85;;;5.05;;
60714;SDS011;46564;53.096;8.246;2022-07-23T04:30:34;13.48;;;5.60;;
60714;SDS011;46564;53.096;8.246;2022-07-23T04:35:36;9.05;;;4.88;;
60714;SDS011;46564;53.096;8.246;2022-07-23T04:40:48;10.23;;;5.07;;
60714;SDS011;46564;53.096;8.246;2022-07-23T04:45:50;11.48;;;5.22;;
60714;SDS011;46564;53.096;8.246;2022-07-23T04:50:51;16.45;;;6.72;;
60714;SDS011;46564;53.096;8.246;2022-07-23T04:55:57;11.77;;;5.30;;
60714;SDS011;46564;53.096;8.246;2022-07-23T05:00:58;9.75;;;4.88;;
60714;SDS011;46564;53.096;8.246;2022-07-23T05:06:01;10.35;;;5.47;;
60714;SDS011;46564;53.096;8.246;2022-07-23T05:11:05;10.68;;;5.93;;
60714;SDS011;46564;53.096;8.246;2022-07-23T05:16:06;14.02;;;5.88;;
60714;SDS011;46564;53.096;8.246;2022-07-23T05:21:09;10.43;;;5.40;;
60714;SDS011;46564;53.096;8.246;2022-07-23T05:26:11;11.80;;;6.30;;
60714;SDS011;46564;53.096;8.246;2022-07-23T05:31:13;12.80;;;6.60;;
60714;SDS011;46564;53.096;8.246;2022-07-23T05:36:15;12.57;;;5.60;;
60714;SDS011;46564;53.096;8.246;2022-07-23T05:41:24;11.20;;;6.10;;
60714;SDS011;46564;53.096;8.246;2022-07-23T05:46:25;12.35;;;5.45;;
60714;SDS011;46564;53.096;8.246;2022-07-23T05:51:31;12.73;;;5.25;;
60714;SDS011;46564;53.096;8.246;2022-07-23T05:56:34;9.13;;;5.05;;
60714;SDS011;46564;53.096;8.246;2022-07-23T06:01:36;14.90;;;5.10;;
60714;SDS011;46564;53.096;8.246;2022-07-23T06:06:43;11.30;;;4.97;;
60714;SDS011;46564;53.096;8.246;2022-07-23T06:11:45;11.13;;;4.97;;
60714;SDS011;46564;53.096;8.246;2022-07-23T06:16:47;7.43;;;3.25;;
60714;SDS011;46564;53.096;8.246;2022-07-23T06:21:49;10.20;;;2.95;;
60714;SDS011;46564;53.096;8.246;2022-07-23T06:26:51;12.23;;;3.90;;
60714;SDS011;46564;53.096;8.246;2022-07-23T06:31:53;10.30;;;3.28;;
60714;SDS011;46564;53.096;8.246;2022-07-23T06:36:54;7.53;;;3.33;;
60714;SDS011;46564;53.096;8.246;2022-07-23T06:41:56;9.90;;;3.08;;
60714;SDS011;46564;53.096;8.246;2022-07-23T06:47:11;9.32;;;3.40;;
60714;SDS011;46564;53.096;8.246;2022-07-23T06:52:13;8.15;;;3.08;;
60714;SDS011;46564;53.096;8.246;2022-07-23T06:57:14;9.65;;;3.35;;
60714;SDS011;46564;53.096;8.246;2022-07-23T07:02:17;7.60;;;3.10;;
60714;SDS011;46564;53.096;8.246;2022-07-23T07:07:19;8.07;;;3.15;;
60714;SDS011;46564;53.096;8.246;2022-07-23T07:12:20;9.02;;;3.20;;
60714;SDS011;46564;53.096;8.246;2022-07-23T07:17:22;7.55;;;2.78;;
60714;SDS011;46564;53.096;8.246;2022-07-23T07:22:23;7.45;;;2.70;;
60714;SDS011;46564;53.096;8.246;2022-07-23T07:27:25;5.00;;;1.88;;
60714;SDS011;46564;53.096;8.246;2022-07-23T07:32:27;5.38;;;2.15;;
60714;SDS011;46564;53.096;8.246;2022-07-23T07:37:48;7.32;;;2.47;;
60714;SDS011;46564;53.096;8.246;2022-07-23T07:42:51;7.68;;;2.58;;
60714;SDS011;46564;53.096;8.246;2022-07-23T07:47:53;5.75;;;2.67;;
60714;SDS011;46564;53.096;8.246;2022-07-23T07:52:55;6.53;;;2.80;;
60714;SDS011;46564;53.096;8.246;2022-07-23T07:57:57;6.30;;;2.53;;
60714;SDS011;46564;53.096;8.246;2022-07-23T08:03:02;7.50;;;2.55;;
60714;SDS011;46564;53.096;8.246;2022-07-23T08:08:04;7.47;;;2.70;;
60714;SDS011;46564;53.096;8.246;2022-07-23T08:13:05;4.82;;;1.33;;
60714;SDS011;46564;53.096;8.246;2022-07-23T08:18:08;5.40;;;1.30;;
60714;SDS011;46564;53.096;8.246;2022-07-23T08:23:10;11.50;;;1.77;;
60714;SDS011;46564;53.096;8.246;2022-07-23T08:28:12;9.00;;;1.90;;
60714;SDS011;46564;53.096;8.246;2022-07-23T08:33:15;4.43;;;1.15;;
60714;SDS011;46564;53.096;8.246;2022-07-23T08:38:34;3.20;;;1.10;;
60714;SDS011;46564;53.096;8.246;2022-07-23T08:43:36;5.00;;;1.00;;
60714;SDS011;46564;53.096;8.246;2022-07-23T08:48:38;2.65;;;1.00;;
60714;SDS011;46564;53.096;8.246;2022-07-23T08:53:41;3.95;;;0.68;;
60714;SDS011;46564;53.096;8.246;2022-07-23T08:58:42;1.95;;;0.60;;
60714;SDS011;46564;53.096;8.246;2022-07-23T09:03:44;0.55;;;0.40;;
60714;SDS011;46564;53.096;8.246;2022-07-23T09:08:46;2.38;;;0.70;;
60714;SDS011;46564;53.096;8.246;2022-07-23T09:13:54;1.13;;;0.55;;
60714;SDS011;46564;53.096;8.246;2022-07-23T09:19:01;2.40;;;0.70;;
60714;SDS011;46564;53.096;8.246;2022-07-23T09:24:08;2.65;;;0.80;;
60714;SDS011;46564;53.096;8.246;2022-07-23T09:29:12;2.00;;;0.70;;
60714;SDS011;46564;53.096;8.246;2022-07-23T09:34:23;2.30;;;0.70;;
60714;SDS011;46564;53.096;8.246;2022-07-23T09:39:30;4.28;;;0.70;;
60714;SDS011;46564;53.096;8.246;2022-07-23T09:44:33;2.65;;;0.60;;
60714;SDS011;46564;53.096;8.246;2022-07-23T09:55:02;2.72;;;0.55;;
60714;SDS011;46564;53.096;8.246;2022-07-23T10:00:06;3.72;;;0.85;;
60714;SDS011;46564;53.096;8.246;2022-07-23T10:05:12;1.40;;;0.55;;
60714;SDS011;46564;53.096;8.246;2022-07-23T10:10:45;1.45;;;0.60;;
60714;SDS011;46564;53.096;8.246;2022-07-23T10:16:14;1.85;;;0.63;;
60714;SDS011;46564;53.096;8.246;2022-07-23T10:21:29;2.30;;;0.70;;
60714;SDS011;46564;53.096;8.246;2022-07-23T10:37:26;0.50;;;0.50;;
60714;SDS011;46564;53.096;8.246;2022-07-23T10:47:36;1.85;;;0.73;;
60714;SDS011;46564;53.096;8.246;2022-07-23T10:58:10;2.60;;;0.65;;
60714;SDS011;46564;53.096;8.246;2022-07-23T11:03:31;0.93;;;0.50;;
60714;SDS011;46564;53.096;8.246;2022-07-23T11:08:40;1.58;;;0.60;;
60714;SDS011;46564;53.096;8.246;2022-07-23T11:13:45;1.65;;;0.60;;
60714;SDS011;46564;53.096;8.246;2022-07-23T11:29:23;0.98;;;0.40;;
60714;SDS011;46564;53.096;8.246;2022-07-23T11:39:39;1.05;;;0.63;;
60714;SDS011;46564;53.096;8.246;2022-07-23T11:44:41;1.83;;;0.80;;
60714;SDS011;46564;53.096;8.246;2022-07-23T11:49:53;1.50;;;0.65;;
60714;SDS011;46564;53.096;8.246;2022-07-23T11:55:02;2.00;;;0.63;;
60714;SDS011;46564;53.096;8.246;2022-07-23T12:05:13;2.50;;;0.50;;
60714;SDS011;46564;53.096;8.246;2022-07-23T12:20:31;3.00;;;0.65;;
60714;SDS011;46564;53.096;8.246;2022-07-23T12:25:36;6.03;;;0.80;;
60714;SDS011;46564;53.096;8.246;2022-07-23T12:30:47;1.77;;;0.60;;
60714;SDS011;46564;53.096;8.246;2022-07-23T12:35:57;2.63;;;0.80;;
60714;SDS011;46564;53.096;8.246;2022-07-23T12:41:00;0.65;;;0.60;;
60714;SDS011;46564;53.096;8.246;2022-07-23T12:46:08;2.17;;;0.60;;
60714;SDS011;46564;53.096;8.246;2022-07-23T13:01:31;0.93;;;0.70;;
60714;SDS011;46564;53.096;8.246;2022-07-23T13:11:44;2.20;;;0.60;;
60714;SDS011;46564;53.096;8.246;2022-07-23T13:17:06;3.05;;;0.60;;
60714;SDS011;46564;53.096;8.246;2022-07-23T13:22:08;0.50;;;0.50;;
60714;SDS011;46564;53.096;8.246;2022-07-23T13:27:10;3.53;;;0.80;;
60714;SDS011;46564;53.096;8.246;2022-07-23T13:32:13;1.88;;;0.80;;
60714;SDS011;46564;53.096;8.246;2022-07-23T13:37:15;2.38;;;0.60;;
60714;SDS011;46564;53.096;8.246;2022-07-23T13:42:16;2.53;;;0.60;;
60714;SDS011;46564;53.096;8.246;2022-07-23T13:47:18;0.73;;;0.60;;
60714;SDS011;46564;53.096;8.246;2022-07-23T13:52:20;4.22;;;0.60;;
60714;SDS011;46564;53.096;8.246;2022-07-23T13:57:21;3.75;;;1.08;;
60714;SDS011;46564;53.096;8.246;2022-07-23T14:02:24;2.60;;;0.75;;
60714;SDS011;46564;53.096;8.246;2022-07-23T14:07:26;2.70;;;0.68;;
60714;SDS011;46564;53.096;8.246;2022-07-23T14:12:28;1.33;;;0.80;;
60714;SDS011;46564;53.096;8.246;2022-07-23T14:17:38;2.78;;;0.70;;
60714;SDS011;46564;53.096;8.246;2022-07-23T14:22:41;6.90;;;1.05;;
60714;SDS011;46564;53.096;8.246;2022-07-23T14:27:43;4.28;;;0.90;;
60714;SDS011;46564;53.096;8.246;2022-07-23T14:32:46;0.82;;;0.70;;
60714;SDS011;46564;53.096;8.246;2022-07-23T14:37:48;1.50;;;0.70;;
60714;SDS011;46564;53.096;8.246;2022-07-23T14:42:49;4.38;;;0.85;;
60714;SDS011;46564;53.096;8.246;2022-07-23T14:47:51;1.70;;;0.60;;
60714;SDS011;46564;53.096;8.246;2022-07-23T14:52:54;2.40;;;0.75;;
60714;SDS011;46564;53.096;8.246;2022-07-23T14:57:56;3.72;;;0.82;;
60714;SDS011;46564;53.096;8.246;2022-07-23T15:02:58;1.73;;;0.80;;
60714;SDS011;46564;53.096;8.246;2022-07-23T15:08:01;2.88;;;0.80;;
60714;SDS011;46564;53.096;8.246;2022-07-23T15:13:02;1.98;;;0.85;;
60714;SDS011;46564;53.096;8.246;2022-07-23T15:18:04;3.75;;;0.75;;
60714;SDS011;46564;53.096;8.246;2022-07-23T15:23:06;2.92;;;1.00;;
60714;SDS011;46564;53.096;8.246;2022-07-23T15:28:10;1.33;;;0.80;;
60714;SDS011;46564;53.096;8.246;2022-07-23T15:33:12;1.77;;;0.98;;
60714;SDS011;46564;53.096;8.246;2022-07-23T15:43:26;2.60;;;0.90;;
60714;SDS011;46564;53.096;8.246;2022-07-23T15:48:28;3.03;;;0.93;;
60714;SDS011;46564;53.096;8.246;2022-07-23T15:53:30;2.35;;;0.90;;
60714;SDS011;46564;53.096;8.246;2022-07-23T15:58:37;5.57;;;1.27;;
60714;SDS011;46564;53.096;8.246;2022-07-23T16:03:39;3.03;;;1.00;;
60714;SDS011;46564;53.096;8.246;2022-07-23T16:08:42;3.22;;;1.10;;
60714;SDS011;46564;53.096;8.246;2022-07-23T16:13:44;1.75;;;1.00;;
60714;SDS011;46564;53.096;8.246;2022-07-23T16:18:46;1.75;;;1.20;;
60714;SDS011;46564;53.096;8.246;2022-07-23T16:23:52;2.42;;;1.00;;
60714;SDS011;46564;53.096;8.246;2022-07-23T16:28:53;2.42;;;0.90;;
60714;SDS011;46564;53.096;8.246;2022-07-23T16:33:55;2.25;;;1.00;;
60714;SDS011;46564;53.096;8.246;2022-07-23T16:38:56;2.88;;;1.30;;
60714;SDS011;46564;53.096;8.246;2022-07-23T16:44:06;1.40;;;0.80;;
60714;SDS011;46564;53.096;8.246;2022-07-23T16:49:08;3.30;;;1.20;;
60714;SDS011;46564;53.096;8.246;2022-07-23T16:54:10;3.45;;;1.08;;
60714;SDS011;46564;53.096;8.246;2022-07-23T16:59:12;3.85;;;1.20;;
60714;SDS011;46564;53.096;8.246;2022-07-23T17:04:14;4.10;;;1.10;;
60714;SDS011;46564;53.096;8.246;2022-07-23T17:09:15;2.40;;;1.13;;
60714;SDS011;46564;53.096;8.246;2022-07-23T17:14:17;2.47;;;1.02;;
60714;SDS011;46564;53.096;8.246;2022-07-23T17:19:19;3.40;;;0.98;;
60714;SDS011;46564;53.096;8.246;2022-07-23T17:24:21;2.80;;;1.02;;
60714;SDS011;46564;53.096;8.246;2022-07-23T17:29:23;2.30;;;1.00;;
60714;SDS011;46564;53.096;8.246;2022-07-23T17:34:24;4.30;;;1.08;;
60714;SDS011;46564;53.096;8.246;2022-07-23T17:39:27;1.80;;;1.00;;
60714;SDS011;46564;53.096;8.246;2022-07-23T17:44:28;2.55;;;1.00;;
60714;SDS011;46564;53.096;8.246;2022-07-23T17:49:30;2.47;;;1.15;;
60714;SDS011;46564;53.096;8.246;2022-07-23T17:54:32;4.20;;;1.20;;
60714;SDS011;46564;53.096;8.246;2022-07-23T17:59:34;3.58;;;1.13;;
60714;SDS011;46564;53.096;8.246;2022-07-23T18:04:35;2.20;;;0.80;;
60714;SDS011;46564;53.096;8.246;2022-07-23T18:09:37;1.88;;;1.00;;
60714;SDS011;46564;53.096;8.246;2022-07-23T18:14:38;3.20;;;1.10;;
60714;SDS011;46564;53.096;8.246;2022-07-23T18:19:40;2.95;;;1.30;;
60714;SDS011;46564;53.096;8.246;2022-07-23T18:24:42;1.73;;;1.13;;
60714;SDS011;46564;53.096;8.246;2022-07-23T18:29:43;2.80;;;1.08;;
60714;SDS011;46564;53.096;8.246;2022-07-23T18:34:45;5.78;;;1.48;;
60714;SDS011;46564;53.096;8.246;2022-07-23T18:39:46;2.70;;;1.15;;
60714;SDS011;46564;53.096;8.246;2022-07-23T18:44:48;1.85;;;1.02;;
60714;SDS011;46564;53.096;8.246;2022-07-23T18:49:49;4.20;;;1.50;;
60714;SDS011;46564;53.096;8.246;2022-07-23T18:54:53;4.70;;;1.33;;
60714;SDS011;46564;53.096;8.246;2022-07-23T18:59:54;2.55;;;1.30;;
60714;SDS011;46564;53.096;8.246;2022-07-23T19:04:56;2.15;;;1.15;;
60714;SDS011;46564;53.096;8.246;2022-07-23T19:09:57;5.07;;;1.50;;
60714;SDS011;46564;53.096;8.246;2022-07-23T19:14:59;4.53;;;1.63;;
60714;SDS011;46564;53.096;8.246;2022-07-23T19:20:08;5.95;;;1.58;;
60714;SDS011;46564;53.096;8.246;2022-07-23T19:25:11;1.90;;;1.10;;
60714;SDS011;46564;53.096;8.246;2022-07-23T19:30:13;2.65;;;1.30;;
60714;SDS011;46564;53.096;8.246;2022-07-23T19:35:15;2.83;;;1.38;;
60714;SDS011;46564;53.096;8.246;2022-07-23T19:40:16;3.75;;;1.65;;
60714;SDS011;46564;53.096;8.246;2022-07-23T19:45:18;3.00;;;1.13;;
60714;SDS011;46564;53.096;8.246;2022-07-23T19:50:20;3.58;;;1.30;;
60714;SDS011;46564;53.096;8.246;2022-07-23T19:55:22;1.77;;;0.90;;
60714;SDS011;46564;53.096;8.246;2022-07-23T20:00:24;2.92;;;1.02;;
60714;SDS011;46564;53.096;8.246;2022-07-23T20:05:26;3.97;;;0.95;;
60714;SDS011;46564;53.096;8.246;2022-07-23T20:10:28;2.05;;;0.88;;
60714;SDS011;46564;53.096;8.246;2022-07-23T20:15:29;3.28;;;1.10;;
60714;SDS011;46564;53.096;8.246;2022-07-23T20:20:32;5.13;;;1.40;;
60714;SDS011;46564;53.096;8.246;2022-07-23T20:25:34;3.85;;;1.25;;
60714;SDS011;46564;53.096;8.246;2022-07-23T20:30:36;1.95;;;1.00;;
60714;SDS011;46564;53.096;8.246;2022-07-23T20:35:38;5.55;;;1.10;;
60714;SDS011;46564;53.096;8.246;2022-07-23T20:40:39;2.30;;;1.08;;
60714;SDS011;46564;53.096;8.246;2022-07-23T20:45:47;4.93;;;1.80;;
60714;SDS011;46564;53.096;8.246;2022-07-23T20:50:48;4.75;;;1.60;;
60714;SDS011;46564;53.096;8.246;2022-07-23T20:55:50;4.38;;;1.60;;
60714;SDS011;46564;53.096;8.246;2022-07-23T21:00:52;5.20;;;1.58;;
60714;SDS011;46564;53.096;8.246;2022-07-23T21:05:54;3.70;;;1.35;;
60714;SDS011;46564;53.096;8.246;2022-07-23T21:10:56;4.65;;;1.80;;
60714;SDS011;46564;53.096;8.246;2022-07-23T21:15:57;4.35;;;1.50;;
60714;SDS011;46564;53.096;8.246;2022-07-23T21:20:59;3.47;;;1.50;;
60714;SDS011;46564;53.096;8.246;2022-07-23T21:26:13;9.38;;;1.70;;
60714;SDS011;46564;53.096;8.246;2022-07-23T21:31:33;3.97;;;2.25;;
60714;SDS011;46564;53.096;8.246;2022-07-23T21:36:35;5.82;;;2.42;;
60714;SDS011;46564;53.096;8.246;2022-07-23T21:41:37;8.27;;;3.20;;
60714;SDS011;46564;53.096;8.246;2022-07-23T21:46:38;5.63;;;2.72;;
60714;SDS011;46564;53.096;8.246;2022-07-23T21:51:40;5.72;;;2.80;;
60714;SDS011;46564;53.096;8.246;2022-07-23T21:56:45;5.72;;;2.60;;
60714;SDS011;46564;53.096;8.246;2022-07-23T22:01:47;9.63;;;2.70;;
60714;SDS011;46564;53.096;8.246;2022-07-23T22:06:49;6.75;;;2.85;;
60714;SDS011;46564;53.096;8.246;2022-07-23T22:11:51;4.30;;;2.10;;
60714;SDS011;46564;53.096;8.246;2022-07-23T22:16:53;6.57;;;3.13;;
60714;SDS011;46564;53.096;8.246;2022-07-23T22:21:54;10.23;;;4.68;;
60714;SDS011;46564;53.096;8.246;2022-07-23T22:26:56;6.75;;;3.72;;
60714;SDS011;46564;53.096;8.246;2022-07-23T22:31:58;7.82;;;2.95;;
60714;SDS011;46564;53.096;8.246;2022-07-23T22:36:59;6.55;;;2.80;;
60714;SDS011;46564;53.096;8.246;2022-07-23T22:42:01;6.30;;;3.10;;
60714;SDS011;46564;53.096;8.246;2022-07-23T22:47:02;7.13;;;2.80;;
60714;SDS011;46564;53.096;8.246;2022-07-23T22:52:04;7.93;;;3.10;;
60714;SDS011;46564;53.096;8.246;2022-07-23T22:57:09;7.38;;;3.00;;
60714;SDS011;46564;53.096;8.246;2022-07-23T23:02:11;7.25;;;3.42;;
60714;SDS011;46564;53.096;8.246;2022-07-23T23:07:12;8.30;;;3.78;;
60714;SDS011;46564;53.096;8.246;2022-07-23T23:12:14;8.50;;;3.25;;
60714;SDS011;46564;53.096;8.246;2022-07-23T23:17:16;8.93;;;4.18;;
60714;SDS011;46564;53.096;8.246;2022-07-23T23:22:17;7.72;;;3.53;;
60714;SDS011;46564;53.096;8.246;2022-07-23T23:27:19;8.57;;;3.47;;
60714;SDS011;46564;53.096;8.246;2022-07-23T23:32:20;7.43;;;3.05;;
60714;SDS011;46564;53.096;8.246;2022-07-23T23:37:22;9.77;;;4.07;;
60714;SDS011;46564;53.096;8.246;2022-07-23T23:42:24;9.52;;;4.28;;
60714;SDS011;46564;53.096;8.246;2022-07-23T23:47:26;8.63;;;3.60;;
60714;SDS011;46564;53.096;8.246;2022-07-23T23:52:28;10.05;;;3.67;;
60714;SDS011;46564;53.096;8.246;2022-07-23T23:57:29;7.00;;;4.05;;
